sensor_id;sensor_type;location;lat;lon;timestamp;P1;durP1;ratioP1;P2;durP2;ratioP2
62509;SDS011;48558;48.242;11.654;2022-09-14T00:00:02;3.90;;;2.40;;
62509;SDS011;48558;48.242;11.654;2022-09-14T00:04:19;4.45;;;2.30;;
62509;SDS011;48558;48.242;11.654;2022-09-14T00:08:32;4.57;;;2.15;;
62509;SDS011;48558;48.242;11.654;2022-09-14T00:12:46;2.30;;;2.10;;
62509;SDS011;48558;48.242;11.654;2022-09-14T00:16:59;3.45;;;2.15;;
62509;SDS011;48558;48.242;11.654;2022-09-14T00:21:13;3.28;;;2.25;;
62509;SDS011;48558;48.242;11.654;2022-09-14T00:25:26;2.78;;;2.10;;
62509;SDS011;48558;48.242;11.654;2022-09-14T00:29:40;6.93;;;3.00;;
62509;SDS011;48558;48.242;11.654;2022-09-14T00:33:53;3.65;;;3.35;;
62509;SDS011;48558;48.242;11.654;2022-09-14T00:38:06;3.53;;;3.22;;
62509;SDS011;48558;48.242;11.654;2022-09-14T00:42:21;3.63;;;3.30;;
62509;SDS011;48558;48.242;11.654;2022-09-14T00:50:58;4.35;;;3.22;;
62509;SDS011;48558;48.242;11.654;2022-09-14T00:55:13;3.30;;;3.00;;
62509;SDS011;48558;48.242;11.654;2022-09-14T00:59:37;2.90;;;2.70;;
62509;SDS011;48558;48.242;11.654;2022-09-14T01:03:52;3.38;;;2.90;;
62509;SDS011;48558;48.242;11.654;2022-09-14T01:08:08;3.30;;;3.00;;
62509;SDS011;48558;48.242;11.654;2022-09-14T01:17:38;2.85;;;2.65;;
62509;SDS011;48558;48.242;11.654;2022-09-14T01:22:07;7.50;;;2.90;;
62509;SDS011;48558;48.242;11.654;2022-09-14T01:30:54;2.88;;;2.67;;
62509;SDS011;48558;48.242;11.654;2022-09-14T01:39:39;4.22;;;2.30;;
62509;SDS011;48558;48.242;11.654;2022-09-14T01:43:58;2.55;;;2.33;;
62509;SDS011;48558;48.242;11.654;2022-09-14T01:48:19;3.03;;;2.80;;
62509;SDS011;48558;48.242;11.654;2022-09-14T01:53:21;2.63;;;2.42;;
62509;SDS011;48558;48.242;11.654;2022-09-14T01:57:41;3.10;;;2.80;;
62509;SDS011;48558;48.242;11.654;2022-09-14T02:06:12;3.80;;;2.50;;
62509;SDS011;48558;48.242;11.654;2022-09-14T02:10:33;3.33;;;2.45;;
62509;SDS011;48558;48.242;11.654;2022-09-14T02:14:46;2.05;;;1.95;;
62509;SDS011;48558;48.242;11.654;2022-09-14T02:19:02;3.25;;;2.60;;
62509;SDS011;48558;48.242;11.654;2022-09-14T02:23:16;2.47;;;2.28;;
62509;SDS011;48558;48.242;11.654;2022-09-14T02:27:29;4.10;;;2.47;;
62509;SDS011;48558;48.242;11.654;2022-09-14T02:36:40;2.95;;;2.10;;
62509;SDS011;48558;48.242;11.654;2022-09-14T02:41:11;2.30;;;2.20;;
62509;SDS011;48558;48.242;11.654;2022-09-14T02:50:33;3.47;;;2.05;;
62509;SDS011;48558;48.242;11.654;2022-09-14T02:55:06;4.50;;;2.30;;
62509;SDS011;48558;48.242;11.654;2022-09-14T02:59:22;3.53;;;2.40;;
62509;SDS011;48558;48.242;11.654;2022-09-14T03:03:35;2.22;;;2.10;;
62509;SDS011;48558;48.242;11.654;2022-09-14T03:07:48;2.65;;;2.25;;
62509;SDS011;48558;48.242;11.654;2022-09-14T03:12:02;2.33;;;2.17;;
62509;SDS011;48558;48.242;11.654;2022-09-14T03:16:16;2.90;;;2.45;;
62509;SDS011;48558;48.242;11.654;2022-09-14T03:20:30;3.80;;;2.42;;
62509;SDS011;48558;48.242;11.654;2022-09-14T03:24:45;2.35;;;2.15;;
62509;SDS011;48558;48.242;11.654;2022-09-14T03:28:58;4.28;;;2.40;;
62509;SDS011;48558;48.242;11.654;2022-09-14T03:33:12;2.45;;;2.22;;
62509;SDS011;48558;48.242;11.654;2022-09-14T03:37:29;2.80;;;2.60;;
62509;SDS011;48558;48.242;11.654;2022-09-14T03:41:42;4.25;;;2.10;;
62509;SDS011;48558;48.242;11.654;2022-09-14T03:45:55;3.80;;;2.60;;
62509;SDS011;48558;48.242;11.654;2022-09-14T03:50:09;6.13;;;2.08;;
62509;SDS011;48558;48.242;11.654;2022-09-14T03:54:23;3.15;;;2.00;;
62509;SDS011;48558;48.242;11.654;2022-09-14T03:58:36;2.72;;;2.00;;
62509;SDS011;48558;48.242;11.654;2022-09-14T04:02:50;2.10;;;2.00;;
62509;SDS011;48558;48.242;11.654;2022-09-14T04:07:03;2.47;;;2.15;;
62509;SDS011;48558;48.242;11.654;2022-09-14T04:11:18;3.30;;;2.50;;
62509;SDS011;48558;48.242;11.654;2022-09-14T04:15:32;3.95;;;2.40;;
62509;SDS011;48558;48.242;11.654;2022-09-14T04:19:46;2.00;;;1.80;;
62509;SDS011;48558;48.242;11.654;2022-09-14T04:24:00;3.50;;;2.22;;
62509;SDS011;48558;48.242;11.654;2022-09-14T04:28:29;2.30;;;2.10;;
62509;SDS011;48558;48.242;11.654;2022-09-14T04:32:42;3.17;;;1.90;;
62509;SDS011;48558;48.242;11.654;2022-09-14T04:36:56;3.45;;;1.77;;
62509;SDS011;48558;48.242;11.654;2022-09-14T04:41:11;2.00;;;1.90;;
62509;SDS011;48558;48.242;11.654;2022-09-14T04:45:25;2.10;;;1.85;;
62509;SDS011;48558;48.242;11.654;2022-09-14T04:49:41;2.58;;;2.10;;
62509;SDS011;48558;48.242;11.654;2022-09-14T04:53:54;3.88;;;2.45;;
62509;SDS011;48558;48.242;11.654;2022-09-14T04:58:09;1.90;;;1.80;;
62509;SDS011;48558;48.242;11.654;2022-09-14T05:02:22;1.98;;;1.88;;
62509;SDS011;48558;48.242;11.654;2022-09-14T05:06:36;2.00;;;1.90;;
62509;SDS011;48558;48.242;11.654;2022-09-14T05:10:53;2.05;;;1.95;;
62509;SDS011;48558;48.242;11.654;2022-09-14T05:15:09;4.50;;;1.92;;
62509;SDS011;48558;48.242;11.654;2022-09-14T05:19:22;4.10;;;2.08;;
62509;SDS011;48558;48.242;11.654;2022-09-14T05:23:36;1.90;;;1.80;;
62509;SDS011;48558;48.242;11.654;2022-09-14T05:27:49;2.10;;;1.90;;
62509;SDS011;48558;48.242;11.654;2022-09-14T05:32:02;3.80;;;2.40;;
62509;SDS011;48558;48.242;11.654;2022-09-14T05:36:16;2.88;;;1.80;;
62509;SDS011;48558;48.242;11.654;2022-09-14T05:40:29;1.80;;;1.70;;
62509;SDS011;48558;48.242;11.654;2022-09-14T05:44:42;1.73;;;1.63;;
62509;SDS011;48558;48.242;11.654;2022-09-14T05:48:55;2.50;;;2.30;;
62509;SDS011;48558;48.242;11.654;2022-09-14T05:53:09;2.40;;;1.70;;
62509;SDS011;48558;48.242;11.654;2022-09-14T05:57:22;4.55;;;1.90;;
62509;SDS011;48558;48.242;11.654;2022-09-14T06:01:43;2.10;;;1.85;;
62509;SDS011;48558;48.242;11.654;2022-09-14T06:05:57;2.42;;;1.88;;
62509;SDS011;48558;48.242;11.654;2022-09-14T06:10:10;2.10;;;1.90;;
62509;SDS011;48558;48.242;11.654;2022-09-14T06:14:24;4.35;;;1.77;;
62509;SDS011;48558;48.242;11.654;2022-09-14T06:18:38;1.70;;;1.60;;
62509;SDS011;48558;48.242;11.654;2022-09-14T06:22:52;4.57;;;1.90;;
62509;SDS011;48558;48.242;11.654;2022-09-14T06:27:05;1.60;;;1.50;;
62509;SDS011;48558;48.242;11.654;2022-09-14T06:31:20;1.90;;;1.80;;
62509;SDS011;48558;48.242;11.654;2022-09-14T06:35:38;5.40;;;2.05;;
62509;SDS011;48558;48.242;11.654;2022-09-14T06:39:54;1.50;;;1.40;;
62509;SDS011;48558;48.242;11.654;2022-09-14T06:44:07;5.88;;;1.65;;
62509;SDS011;48558;48.242;11.654;2022-09-14T06:48:21;5.78;;;1.42;;
62509;SDS011;48558;48.242;11.654;2022-09-14T06:52:35;6.07;;;1.73;;
62509;SDS011;48558;48.242;11.654;2022-09-14T06:56:49;1.58;;;1.42;;
62509;SDS011;48558;48.242;11.654;2022-09-14T07:01:04;2.90;;;1.60;;
62509;SDS011;48558;48.242;11.654;2022-09-14T07:05:19;1.65;;;1.55;;
62509;SDS011;48558;48.242;11.654;2022-09-14T07:09:34;4.32;;;1.58;;
62509;SDS011;48558;48.242;11.654;2022-09-14T07:13:48;4.82;;;1.50;;
62509;SDS011;48558;48.242;11.654;2022-09-14T07:18:01;2.78;;;1.48;;
62509;SDS011;48558;48.242;11.654;2022-09-14T07:22:14;4.97;;;1.50;;
62509;SDS011;48558;48.242;11.654;2022-09-14T07:26:31;5.88;;;1.70;;
62509;SDS011;48558;48.242;11.654;2022-09-14T07:30:47;2.20;;;1.42;;
62509;SDS011;48558;48.242;11.654;2022-09-14T07:35:00;2.80;;;1.38;;
62509;SDS011;48558;48.242;11.654;2022-09-14T07:39:15;2.03;;;1.38;;
62509;SDS011;48558;48.242;11.654;2022-09-14T07:43:29;3.22;;;1.38;;
62509;SDS011;48558;48.242;11.654;2022-09-14T07:47:43;3.47;;;1.30;;
62509;SDS011;48558;48.242;11.654;2022-09-14T07:51:56;2.67;;;1.48;;
62509;SDS011;48558;48.242;11.654;2022-09-14T07:56:10;2.53;;;1.10;;
62509;SDS011;48558;48.242;11.654;2022-09-14T08:00:24;4.18;;;1.35;;
62509;SDS011;48558;48.242;11.654;2022-09-14T08:04:37;4.70;;;1.67;;
62509;SDS011;48558;48.242;11.654;2022-09-14T08:08:51;6.13;;;1.33;;
62509;SDS011;48558;48.242;11.654;2022-09-14T08:13:05;2.03;;;1.33;;
62509;SDS011;48558;48.242;11.654;2022-09-14T08:17:18;3.65;;;1.25;;
62509;SDS011;48558;48.242;11.654;2022-09-14T08:21:33;2.95;;;1.38;;
62509;SDS011;48558;48.242;11.654;2022-09-14T08:25:47;3.30;;;1.40;;
62509;SDS011;48558;48.242;11.654;2022-09-14T08:30:00;3.63;;;1.40;;
62509;SDS011;48558;48.242;11.654;2022-09-14T08:34:14;2.25;;;1.20;;
62509;SDS011;48558;48.242;11.654;2022-09-14T08:38:28;3.30;;;1.25;;
62509;SDS011;48558;48.242;11.654;2022-09-14T08:42:41;1.30;;;1.20;;
62509;SDS011;48558;48.242;11.654;2022-09-14T08:47:01;3.70;;;1.20;;
62509;SDS011;48558;48.242;11.654;2022-09-14T08:51:16;2.20;;;1.42;;
62509;SDS011;48558;48.242;11.654;2022-09-14T08:55:32;1.50;;;1.35;;
62509;SDS011;48558;48.242;11.654;2022-09-14T08:59:49;2.35;;;1.17;;
62509;SDS011;48558;48.242;11.654;2022-09-14T09:04:38;3.55;;;1.30;;
62509;SDS011;48558;48.242;11.654;2022-09-14T09:13:26;1.10;;;1.00;;
62509;SDS011;48558;48.242;11.654;2022-09-14T09:17:47;4.25;;;1.30;;
62509;SDS011;48558;48.242;11.654;2022-09-14T09:22:05;3.88;;;1.40;;
62509;SDS011;48558;48.242;11.654;2022-09-14T09:26:28;3.85;;;1.33;;
62509;SDS011;48558;48.242;11.654;2022-09-14T09:30:42;1.10;;;1.10;;
62509;SDS011;48558;48.242;11.654;2022-09-14T09:34:57;5.45;;;1.38;;
62509;SDS011;48558;48.242;11.654;2022-09-14T09:39:10;1.63;;;1.10;;
62509;SDS011;48558;48.242;11.654;2022-09-14T09:43:24;2.40;;;1.20;;
62509;SDS011;48558;48.242;11.654;2022-09-14T09:47:57;3.70;;;1.45;;
62509;SDS011;48558;48.242;11.654;2022-09-14T09:52:21;1.35;;;1.25;;
62509;SDS011;48558;48.242;11.654;2022-09-14T09:56:35;8.32;;;1.20;;
62509;SDS011;48558;48.242;11.654;2022-09-14T10:00:58;2.70;;;1.27;;
62509;SDS011;48558;48.242;11.654;2022-09-14T10:05:27;1.38;;;1.10;;
62509;SDS011;48558;48.242;11.654;2022-09-14T10:09:43;2.78;;;1.08;;
62509;SDS011;48558;48.242;11.654;2022-09-14T10:14:22;2.25;;;1.40;;
62509;SDS011;48558;48.242;11.654;2022-09-14T10:18:44;2.93;;;1.43;;
62509;SDS011;48558;48.242;11.654;2022-09-14T10:27:36;1.30;;;1.20;;
62509;SDS011;48558;48.242;11.654;2022-09-14T10:31:56;4.82;;;1.50;;
62509;SDS011;48558;48.242;11.654;2022-09-14T10:41:12;3.67;;;1.35;;
62509;SDS011;48558;48.242;11.654;2022-09-14T10:45:34;1.40;;;1.23;;
62509;SDS011;48558;48.242;11.654;2022-09-14T10:54:13;3.30;;;1.30;;
62509;SDS011;48558;48.242;11.654;2022-09-14T11:25:57;3.10;;;1.17;;
62509;SDS011;48558;48.242;11.654;2022-09-14T11:30:15;5.20;;;1.88;;
62509;SDS011;48558;48.242;11.654;2022-09-14T11:34:41;4.10;;;1.58;;
62509;SDS011;48558;48.242;11.654;2022-09-14T11:39:21;1.95;;;1.73;;
62509;SDS011;48558;48.242;11.654;2022-09-14T11:48:19;3.47;;;1.30;;
62509;SDS011;48558;48.242;11.654;2022-09-14T11:53:00;4.03;;;1.60;;
62509;SDS011;48558;48.242;11.654;2022-09-14T11:57:25;1.65;;;1.42;;
62509;SDS011;48558;48.242;11.654;2022-09-14T12:01:45;1.88;;;1.50;;
62509;SDS011;48558;48.242;11.654;2022-09-14T12:06:00;1.27;;;1.17;;
62509;SDS011;48558;48.242;11.654;2022-09-14T12:11:01;4.10;;;1.27;;
62509;SDS011;48558;48.242;11.654;2022-09-14T12:19:40;2.17;;;1.15;;
62509;SDS011;48558;48.242;11.654;2022-09-14T12:23:55;1.75;;;1.30;;
62509;SDS011;48558;48.242;11.654;2022-09-14T12:28:26;3.22;;;1.30;;
62509;SDS011;48558;48.242;11.654;2022-09-14T12:37:42;3.83;;;1.38;;
62509;SDS011;48558;48.242;11.654;2022-09-14T12:41:57;3.65;;;1.75;;
62509;SDS011;48558;48.242;11.654;2022-09-14T12:50:33;1.33;;;1.23;;
62509;SDS011;48558;48.242;11.654;2022-09-14T12:54:52;8.02;;;1.70;;
62509;SDS011;48558;48.242;11.654;2022-09-14T13:03:45;7.32;;;2.03;;
62509;SDS011;48558;48.242;11.654;2022-09-14T13:08:09;5.20;;;1.60;;
62509;SDS011;48558;48.242;11.654;2022-09-14T13:12:25;1.80;;;1.20;;
62509;SDS011;48558;48.242;11.654;2022-09-14T13:16:43;2.92;;;1.48;;
62509;SDS011;48558;48.242;11.654;2022-09-14T13:21:00;2.80;;;1.73;;
62509;SDS011;48558;48.242;11.654;2022-09-14T13:25:32;2.47;;;1.80;;
62509;SDS011;48558;48.242;11.654;2022-09-14T13:29:47;3.17;;;1.60;;
62509;SDS011;48558;48.242;11.654;2022-09-14T13:34:22;5.07;;;1.63;;
62509;SDS011;48558;48.242;11.654;2022-09-14T13:38:38;3.38;;;1.60;;
62509;SDS011;48558;48.242;11.654;2022-09-14T13:42:51;6.85;;;1.52;;
62509;SDS011;48558;48.242;11.654;2022-09-14T13:47:05;1.95;;;1.40;;
62509;SDS011;48558;48.242;11.654;2022-09-14T13:51:26;1.30;;;1.20;;
62509;SDS011;48558;48.242;11.654;2022-09-14T13:55:42;3.38;;;1.48;;
62509;SDS011;48558;48.242;11.654;2022-09-14T14:00:04;3.40;;;1.52;;
62509;SDS011;48558;48.242;11.654;2022-09-14T14:04:37;4.82;;;1.50;;
62509;SDS011;48558;48.242;11.654;2022-09-14T14:09:01;2.88;;;1.27;;
62509;SDS011;48558;48.242;11.654;2022-09-14T14:13:29;3.85;;;1.38;;
62509;SDS011;48558;48.242;11.654;2022-09-14T14:17:45;5.22;;;1.70;;
62509;SDS011;48558;48.242;11.654;2022-09-14T14:22:14;2.83;;;1.52;;
62509;SDS011;48558;48.242;11.654;2022-09-14T14:26:29;3.80;;;1.60;;
62509;SDS011;48558;48.242;11.654;2022-09-14T14:30:43;2.60;;;1.33;;
62509;SDS011;48558;48.242;11.654;2022-09-14T14:35:02;3.40;;;1.30;;
62509;SDS011;48558;48.242;11.654;2022-09-14T14:39:22;2.90;;;1.30;;
62509;SDS011;48558;48.242;11.654;2022-09-14T14:43:36;3.67;;;1.50;;
62509;SDS011;48558;48.242;11.654;2022-09-14T14:47:58;2.22;;;1.48;;
62509;SDS011;48558;48.242;11.654;2022-09-14T14:52:12;3.75;;;1.63;;
62509;SDS011;48558;48.242;11.654;2022-09-14T14:56:25;3.78;;;1.45;;
62509;SDS011;48558;48.242;11.654;2022-09-14T15:00:39;7.55;;;1.38;;
62509;SDS011;48558;48.242;11.654;2022-09-14T15:04:52;3.47;;;1.42;;
62509;SDS011;48558;48.242;11.654;2022-09-14T15:09:08;3.28;;;1.50;;
62509;SDS011;48558;48.242;11.654;2022-09-14T15:13:29;1.40;;;1.00;;
62509;SDS011;48558;48.242;11.654;2022-09-14T15:17:42;1.25;;;0.93;;
62509;SDS011;48558;48.242;11.654;2022-09-14T15:21:56;2.13;;;1.27;;
62509;SDS011;48558;48.242;11.654;2022-09-14T15:26:14;2.63;;;1.33;;
62509;SDS011;48558;48.242;11.654;2022-09-14T15:30:27;2.05;;;0.90;;
62509;SDS011;48558;48.242;11.654;2022-09-14T15:34:40;4.32;;;0.98;;
62509;SDS011;48558;48.242;11.654;2022-09-14T15:38:53;3.65;;;1.05;;
62509;SDS011;48558;48.242;11.654;2022-09-14T15:43:09;3.22;;;1.00;;
62509;SDS011;48558;48.242;11.654;2022-09-14T15:47:22;1.95;;;0.95;;
62509;SDS011;48558;48.242;11.654;2022-09-14T15:51:35;2.08;;;0.80;;
62509;SDS011;48558;48.242;11.654;2022-09-14T15:55:49;5.50;;;1.00;;
62509;SDS011;48558;48.242;11.654;2022-09-14T16:00:04;4.43;;;1.00;;
62509;SDS011;48558;48.242;11.654;2022-09-14T16:04:20;5.43;;;1.33;;
62509;SDS011;48558;48.242;11.654;2022-09-14T16:08:34;2.60;;;1.20;;
62509;SDS011;48558;48.242;11.654;2022-09-14T16:12:48;2.13;;;1.20;;
62509;SDS011;48558;48.242;11.654;2022-09-14T16:17:01;2.45;;;1.40;;
62509;SDS011;48558;48.242;11.654;2022-09-14T16:21:17;3.50;;;1.45;;
62509;SDS011;48558;48.242;11.654;2022-09-14T16:25:36;2.58;;;1.80;;
62509;SDS011;48558;48.242;11.654;2022-09-14T16:29:52;3.10;;;1.20;;
62509;SDS011;48558;48.242;11.654;2022-09-14T16:34:07;3.53;;;1.38;;
62509;SDS011;48558;48.242;11.654;2022-09-14T16:38:22;4.88;;;1.58;;
62509;SDS011;48558;48.242;11.654;2022-09-14T16:42:35;5.00;;;1.80;;
62509;SDS011;48558;48.242;11.654;2022-09-14T16:46:49;3.03;;;1.63;;
62509;SDS011;48558;48.242;11.654;2022-09-14T16:51:07;2.50;;;1.50;;
62509;SDS011;48558;48.242;11.654;2022-09-14T16:55:21;4.72;;;2.05;;
62509;SDS011;48558;48.242;11.654;2022-09-14T16:59:34;4.43;;;1.52;;
62509;SDS011;48558;48.242;11.654;2022-09-14T17:03:47;3.50;;;1.70;;
62509;SDS011;48558;48.242;11.654;2022-09-14T17:08:03;2.88;;;1.63;;
62509;SDS011;48558;48.242;11.654;2022-09-14T17:12:16;1.63;;;1.42;;
62509;SDS011;48558;48.242;11.654;2022-09-14T17:16:29;4.57;;;1.98;;
62509;SDS011;48558;48.242;11.654;2022-09-14T17:25:39;4.60;;;1.65;;
62509;SDS011;48558;48.242;11.654;2022-09-14T17:29:52;3.08;;;1.90;;
62509;SDS011;48558;48.242;11.654;2022-09-14T17:34:07;3.67;;;1.83;;
62509;SDS011;48558;48.242;11.654;2022-09-14T17:38:24;1.52;;;1.30;;
62509;SDS011;48558;48.242;11.654;2022-09-14T17:42:40;3.30;;;1.60;;
62509;SDS011;48558;48.242;11.654;2022-09-14T17:46:56;3.05;;;1.75;;
62509;SDS011;48558;48.242;11.654;2022-09-14T17:51:14;1.50;;;1.40;;
62509;SDS011;48558;48.242;11.654;2022-09-14T17:55:32;5.45;;;1.90;;
62509;SDS011;48558;48.242;11.654;2022-09-14T17:59:45;2.17;;;1.27;;
62509;SDS011;48558;48.242;11.654;2022-09-14T18:03:59;2.47;;;2.00;;
62509;SDS011;48558;48.242;11.654;2022-09-14T18:08:14;6.80;;;2.50;;
62509;SDS011;48558;48.242;11.654;2022-09-14T18:12:31;2.40;;;2.20;;
62509;SDS011;48558;48.242;11.654;2022-09-14T18:16:45;3.15;;;2.58;;
62509;SDS011;48558;48.242;11.654;2022-09-14T18:20:59;4.45;;;1.90;;
62509;SDS011;48558;48.242;11.654;2022-09-14T18:25:13;5.35;;;2.00;;
62509;SDS011;48558;48.242;11.654;2022-09-14T18:29:26;4.20;;;2.28;;
62509;SDS011;48558;48.242;11.654;2022-09-14T18:33:48;4.13;;;2.17;;
62509;SDS011;48558;48.242;11.654;2022-09-14T18:38:04;3.50;;;1.88;;
62509;SDS011;48558;48.242;11.654;2022-09-14T18:42:18;5.43;;;1.70;;
62509;SDS011;48558;48.242;11.654;2022-09-14T18:46:33;4.07;;;2.10;;
62509;SDS011;48558;48.242;11.654;2022-09-14T18:50:46;4.43;;;1.73;;
62509;SDS011;48558;48.242;11.654;2022-09-14T18:55:01;2.72;;;1.65;;
62509;SDS011;48558;48.242;11.654;2022-09-14T18:59:14;1.67;;;1.38;;
62509;SDS011;48558;48.242;11.654;2022-09-14T19:03:27;2.35;;;1.90;;
62509;SDS011;48558;48.242;11.654;2022-09-14T19:07:44;2.45;;;1.60;;
62509;SDS011;48558;48.242;11.654;2022-09-14T19:11:57;3.95;;;1.77;;
62509;SDS011;48558;48.242;11.654;2022-09-14T19:16:15;2.85;;;1.52;;
62509;SDS011;48558;48.242;11.654;2022-09-14T19:20:36;3.88;;;2.28;;
62509;SDS011;48558;48.242;11.654;2022-09-14T19:25:11;8.23;;;2.03;;
62509;SDS011;48558;48.242;11.654;2022-09-14T19:29:24;3.47;;;1.65;;
62509;SDS011;48558;48.242;11.654;2022-09-14T19:33:38;3.05;;;1.67;;
62509;SDS011;48558;48.242;11.654;2022-09-14T19:37:56;4.97;;;1.52;;
62509;SDS011;48558;48.242;11.654;2022-09-14T19:42:10;2.70;;;1.40;;
62509;SDS011;48558;48.242;11.654;2022-09-14T19:46:23;2.85;;;1.50;;
62509;SDS011;48558;48.242;11.654;2022-09-14T19:50:37;1.70;;;1.50;;
62509;SDS011;48558;48.242;11.654;2022-09-14T19:54:50;2.03;;;1.83;;
62509;SDS011;48558;48.242;11.654;2022-09-14T19:59:04;3.63;;;1.85;;
62509;SDS011;48558;48.242;11.654;2022-09-14T20:03:19;5.55;;;1.50;;
62509;SDS011;48558;48.242;11.654;2022-09-14T20:07:34;5.80;;;1.90;;
62509;SDS011;48558;48.242;11.654;2022-09-14T20:11:47;2.15;;;1.70;;
62509;SDS011;48558;48.242;11.654;2022-09-14T20:16:09;4.15;;;2.13;;
62509;SDS011;48558;48.242;11.654;2022-09-14T20:20:22;3.38;;;1.75;;
62509;SDS011;48558;48.242;11.654;2022-09-14T20:24:36;4.88;;;2.10;;
62509;SDS011;48558;48.242;11.654;2022-09-14T20:28:49;2.35;;;1.52;;
62509;SDS011;48558;48.242;11.654;2022-09-14T20:33:03;3.42;;;1.67;;
62509;SDS011;48558;48.242;11.654;2022-09-14T20:37:18;3.90;;;1.52;;
62509;SDS011;48558;48.242;11.654;2022-09-14T20:41:31;3.30;;;1.63;;
62509;SDS011;48558;48.242;11.654;2022-09-14T20:45:46;3.25;;;2.00;;
62509;SDS011;48558;48.242;11.654;2022-09-14T20:49:59;4.35;;;1.60;;
62509;SDS011;48558;48.242;11.654;2022-09-14T20:54:13;5.25;;;1.85;;
62509;SDS011;48558;48.242;11.654;2022-09-14T20:58:31;2.85;;;1.80;;
62509;SDS011;48558;48.242;11.654;2022-09-14T21:02:49;3.00;;;1.95;;
62509;SDS011;48558;48.242;11.654;2022-09-14T21:07:03;2.83;;;1.67;;
62509;SDS011;48558;48.242;11.654;2022-09-14T21:11:17;2.67;;;1.70;;
62509;SDS011;48558;48.242;11.654;2022-09-14T21:15:33;7.82;;;1.90;;
62509;SDS011;48558;48.242;11.654;2022-09-14T21:19:46;5.00;;;1.80;;
62509;SDS011;48558;48.242;11.654;2022-09-14T21:24:00;3.67;;;1.90;;
62509;SDS011;48558;48.242;11.654;2022-09-14T21:28:13;3.13;;;1.88;;
62509;SDS011;48558;48.242;11.654;2022-09-14T21:32:27;4.93;;;1.90;;
62509;SDS011;48558;48.242;11.654;2022-09-14T21:36:44;4.32;;;1.83;;
62509;SDS011;48558;48.242;11.654;2022-09-14T21:41:01;5.15;;;2.10;;
62509;SDS011;48558;48.242;11.654;2022-09-14T21:45:16;4.90;;;1.90;;
62509;SDS011;48558;48.242;11.654;2022-09-14T21:49:29;2.85;;;1.90;;
62509;SDS011;48558;48.242;11.654;2022-09-14T21:53:49;5.03;;;2.10;;
62509;SDS011;48558;48.242;11.654;2022-09-14T21:58:05;4.97;;;2.05;;
62509;SDS011;48558;48.242;11.654;2022-09-14T22:02:20;2.00;;;1.90;;
62509;SDS011;48558;48.242;11.654;2022-09-14T22:06:33;1.95;;;1.70;;
62509;SDS011;48558;48.242;11.654;2022-09-14T22:10:47;2.08;;;1.85;;
62509;SDS011;48558;48.242;11.654;2022-09-14T22:15:00;2.92;;;1.92;;
62509;SDS011;48558;48.242;11.654;2022-09-14T22:19:15;3.22;;;2.00;;
62509;SDS011;48558;48.242;11.654;2022-09-14T22:23:31;7.70;;;2.08;;
62509;SDS011;48558;48.242;11.654;2022-09-14T22:27:45;3.17;;;1.40;;
62509;SDS011;48558;48.242;11.654;2022-09-14T22:31:59;2.50;;;1.80;;
62509;SDS011;48558;48.242;11.654;2022-09-14T22:36:12;5.32;;;2.00;;
62509;SDS011;48558;48.242;11.654;2022-09-14T22:40:26;4.00;;;1.70;;
62509;SDS011;48558;48.242;11.654;2022-09-14T22:44:40;8.35;;;1.80;;
62509;SDS011;48558;48.242;11.654;2022-09-14T22:48:53;2.60;;;1.60;;
62509;SDS011;48558;48.242;11.654;2022-09-14T22:53:06;3.47;;;1.63;;
62509;SDS011;48558;48.242;11.654;2022-09-14T22:57:20;1.67;;;1.58;;
62509;SDS011;48558;48.242;11.654;2022-09-14T23:01:35;4.10;;;1.20;;
62509;SDS011;48558;48.242;11.654;2022-09-14T23:05:53;2.95;;;1.20;;
62509;SDS011;48558;48.242;11.654;2022-09-14T23:10:11;2.13;;;1.35;;
62509;SDS011;48558;48.242;11.654;2022-09-14T23:14:25;1.20;;;1.10;;
62509;SDS011;48558;48.242;11.654;2022-09-14T23:18:38;2.58;;;1.58;;
62509;SDS011;48558;48.242;11.654;2022-09-14T23:22:52;2.05;;;1.17;;
62509;SDS011;48558;48.242;11.654;2022-09-14T23:27:05;3.55;;;1.35;;
62509;SDS011;48558;48.242;11.654;2022-09-14T23:31:18;1.27;;;1.17;;
62509;SDS011;48558;48.242;11.654;2022-09-14T23:35:32;2.00;;;1.55;;
62509;SDS011;48558;48.242;11.654;2022-09-14T23:39:48;1.20;;;1.10;;
62509;SDS011;48558;48.242;11.654;2022-09-14T23:44:05;1.23;;;1.13;;
62509;SDS011;48558;48.242;11.654;2022-09-14T23:48:18;1.00;;;1.00;;
62509;SDS011;48558;48.242;11.654;2022-09-14T23:52:34;3.20;;;1.38;;
62509;SDS011;48558;48.242;11.654;2022-09-14T23:56:49;1.40;;;1.30;;
